sensor_id;sensor_type;location;lat;lon;timestamp;P1;durP1;ratioP1;P2;durP2;ratioP2
72974;SDS011;61166;54.228;37.632;2023-02-05T00:02:24;22.77;;;8.73;;
72974;SDS011;61166;54.228;37.632;2023-02-05T00:04:51;38.95;;;13.52;;
72974;SDS011;61166;54.228;37.632;2023-02-05T00:07:17;17.67;;;6.65;;
72974;SDS011;61166;54.228;37.632;2023-02-05T00:09:44;23.55;;;9.35;;
72974;SDS011;61166;54.228;37.632;2023-02-05T00:12:10;22.52;;;8.73;;
72974;SDS011;61166;54.228;37.632;2023-02-05T00:14:36;36.60;;;13.77;;
72974;SDS011;61166;54.228;37.632;2023-02-05T00:17:03;22.13;;;8.35;;
72974;SDS011;61166;54.228;37.632;2023-02-05T00:19:29;21.67;;;8.48;;
72974;SDS011;61166;54.228;37.632;2023-02-05T00:21:56;20.98;;;8.60;;
72974;SDS011;61166;54.228;37.632;2023-02-05T00:24:22;29.73;;;11.48;;
72974;SDS011;61166;54.228;37.632;2023-02-05T00:26:48;31.80;;;10.07;;
72974;SDS011;61166;54.228;37.632;2023-02-05T00:29:15;42.03;;;13.68;;
72974;SDS011;61166;54.228;37.632;2023-02-05T00:31:41;28.80;;;9.30;;
72974;SDS011;61166;54.228;37.632;2023-02-05T00:34:08;35.08;;;11.95;;
72974;SDS011;61166;54.228;37.632;2023-02-05T00:36:34;30.58;;;10.70;;
72974;SDS011;61166;54.228;37.632;2023-02-05T00:39:00;14.67;;;6.80;;
72974;SDS011;61166;54.228;37.632;2023-02-05T00:41:27;21.17;;;8.95;;
72974;SDS011;61166;54.228;37.632;2023-02-05T00:43:53;40.42;;;14.10;;
72974;SDS011;61166;54.228;37.632;2023-02-05T00:46:20;13.50;;;5.93;;
72974;SDS011;61166;54.228;37.632;2023-02-05T00:48:46;31.08;;;10.60;;
72974;SDS011;61166;54.228;37.632;2023-02-05T00:51:13;8.43;;;3.83;;
72974;SDS011;61166;54.228;37.632;2023-02-05T00:53:39;16.90;;;6.65;;
72974;SDS011;61166;54.228;37.632;2023-02-05T00:56:07;23.80;;;8.50;;
72974;SDS011;61166;54.228;37.632;2023-02-05T00:58:34;14.07;;;7.40;;
72974;SDS011;61166;54.228;37.632;2023-02-05T01:01:00;33.42;;;11.90;;
72974;SDS011;61166;54.228;37.632;2023-02-05T01:03:26;35.73;;;12.33;;
72974;SDS011;61166;54.228;37.632;2023-02-05T01:05:53;31.33;;;10.48;;
72974;SDS011;61166;54.228;37.632;2023-02-05T01:08:19;13.73;;;5.95;;
72974;SDS011;61166;54.228;37.632;2023-02-05T01:10:46;18.38;;;6.05;;
72974;SDS011;61166;54.228;37.632;2023-02-05T01:13:13;36.95;;;10.52;;
72974;SDS011;61166;54.228;37.632;2023-02-05T01:15:43;32.27;;;10.73;;
72974;SDS011;61166;54.228;37.632;2023-02-05T01:18:10;13.38;;;4.75;;
72974;SDS011;61166;54.228;37.632;2023-02-05T01:20:37;16.52;;;5.63;;
72974;SDS011;61166;54.228;37.632;2023-02-05T01:23:04;13.52;;;5.95;;
72974;SDS011;61166;54.228;37.632;2023-02-05T01:25:30;10.90;;;6.93;;
72974;SDS011;61166;54.228;37.632;2023-02-05T01:27:57;9.40;;;4.27;;
72974;SDS011;61166;54.228;37.632;2023-02-05T01:30:24;16.55;;;6.85;;
72974;SDS011;61166;54.228;37.632;2023-02-05T01:32:50;21.90;;;7.28;;
72974;SDS011;61166;54.228;37.632;2023-02-05T01:35:17;39.63;;;11.52;;
72974;SDS011;61166;54.228;37.632;2023-02-05T01:37:43;48.72;;;15.00;;
72974;SDS011;61166;54.228;37.632;2023-02-05T01:40:12;54.87;;;15.47;;
72974;SDS011;61166;54.228;37.632;2023-02-05T01:42:39;47.83;;;13.25;;
72974;SDS011;61166;54.228;37.632;2023-02-05T01:47:58;43.35;;;13.27;;
72974;SDS011;61166;54.228;37.632;2023-02-05T01:50:38;48.30;;;15.32;;
72974;SDS011;61166;54.228;37.632;2023-02-05T01:53:07;52.20;;;15.37;;
72974;SDS011;61166;54.228;37.632;2023-02-05T01:55:39;49.08;;;13.63;;
72974;SDS011;61166;54.228;37.632;2023-02-05T01:58:07;31.52;;;11.48;;
72974;SDS011;61166;54.228;37.632;2023-02-05T02:00:34;25.00;;;9.18;;
72974;SDS011;61166;54.228;37.632;2023-02-05T02:03:00;19.23;;;8.02;;
72974;SDS011;61166;54.228;37.632;2023-02-05T02:05:27;24.47;;;9.57;;
72974;SDS011;61166;54.228;37.632;2023-02-05T02:07:53;37.85;;;11.77;;
72974;SDS011;61166;54.228;37.632;2023-02-05T02:10:19;43.00;;;14.57;;
72974;SDS011;61166;54.228;37.632;2023-02-05T02:12:46;50.13;;;14.70;;
72974;SDS011;61166;54.228;37.632;2023-02-05T02:15:15;42.60;;;14.60;;
72974;SDS011;61166;54.228;37.632;2023-02-05T02:17:43;37.80;;;11.90;;
72974;SDS011;61166;54.228;37.632;2023-02-05T02:20:11;36.28;;;13.35;;
72974;SDS011;61166;54.228;37.632;2023-02-05T02:27:39;30.80;;;11.02;;
72974;SDS011;61166;54.228;37.632;2023-02-05T02:30:22;35.47;;;12.17;;
72974;SDS011;61166;54.228;37.632;2023-02-05T02:32:52;35.08;;;12.48;;
72974;SDS011;61166;54.228;37.632;2023-02-05T02:38:15;19.02;;;8.05;;
72974;SDS011;61166;54.228;37.632;2023-02-05T02:41:01;23.45;;;9.50;;
72974;SDS011;61166;54.228;37.632;2023-02-05T02:45:57;18.70;;;7.50;;
72974;SDS011;61166;54.228;37.632;2023-02-05T02:48:25;11.27;;;4.47;;
72974;SDS011;61166;54.228;37.632;2023-02-05T02:50:54;35.38;;;12.95;;
72974;SDS011;61166;54.228;37.632;2023-02-05T02:53:55;32.08;;;12.13;;
72974;SDS011;61166;54.228;37.632;2023-02-05T02:56:14;23.80;;;10.30;;
72974;SDS011;61166;54.228;37.632;2023-02-05T02:59:04;39.22;;;12.32;;
72974;SDS011;61166;54.228;37.632;2023-02-05T03:01:29;34.10;;;13.27;;
72974;SDS011;61166;54.228;37.632;2023-02-05T03:04:07;38.03;;;13.52;;
72974;SDS011;61166;54.228;37.632;2023-02-05T03:06:34;32.30;;;11.43;;
72974;SDS011;61166;54.228;37.632;2023-02-05T03:09:05;37.37;;;13.23;;
72974;SDS011;61166;54.228;37.632;2023-02-05T03:11:32;40.85;;;13.45;;
72974;SDS011;61166;54.228;37.632;2023-02-05T03:13:59;30.13;;;10.23;;
72974;SDS011;61166;54.228;37.632;2023-02-05T03:16:26;33.50;;;12.23;;
72974;SDS011;61166;54.228;37.632;2023-02-05T03:18:53;32.63;;;12.48;;
72974;SDS011;61166;54.228;37.632;2023-02-05T03:21:22;29.03;;;10.90;;
72974;SDS011;61166;54.228;37.632;2023-02-05T03:23:50;32.20;;;11.95;;
72974;SDS011;61166;54.228;37.632;2023-02-05T03:28:49;35.67;;;11.10;;
72974;SDS011;61166;54.228;37.632;2023-02-05T03:31:50;33.75;;;11.80;;
72974;SDS011;61166;54.228;37.632;2023-02-05T03:47:38;33.93;;;12.50;;
72974;SDS011;61166;54.228;37.632;2023-02-05T03:50:10;40.70;;;12.73;;
72974;SDS011;61166;54.228;37.632;2023-02-05T03:52:40;35.55;;;11.88;;
72974;SDS011;61166;54.228;37.632;2023-02-05T03:55:16;27.73;;;10.65;;
72974;SDS011;61166;54.228;37.632;2023-02-05T03:57:46;32.92;;;11.77;;
72974;SDS011;61166;54.228;37.632;2023-02-05T04:00:14;33.30;;;12.07;;
72974;SDS011;61166;54.228;37.632;2023-02-05T04:02:41;34.38;;;10.73;;
72974;SDS011;61166;54.228;37.632;2023-02-05T04:05:07;29.05;;;10.35;;
72974;SDS011;61166;54.228;37.632;2023-02-05T04:07:34;27.48;;;10.98;;
72974;SDS011;61166;54.228;37.632;2023-02-05T04:10:00;33.00;;;10.90;;
72974;SDS011;61166;54.228;37.632;2023-02-05T04:12:27;30.60;;;11.17;;
72974;SDS011;61166;54.228;37.632;2023-02-05T04:14:53;29.40;;;11.05;;
72974;SDS011;61166;54.228;37.632;2023-02-05T04:17:20;32.35;;;12.10;;
72974;SDS011;61166;54.228;37.632;2023-02-05T04:19:46;30.08;;;11.35;;
72974;SDS011;61166;54.228;37.632;2023-02-05T04:22:12;34.25;;;12.40;;
72974;SDS011;61166;54.228;37.632;2023-02-05T04:24:39;35.77;;;12.23;;
72974;SDS011;61166;54.228;37.632;2023-02-05T04:27:05;31.45;;;11.45;;
72974;SDS011;61166;54.228;37.632;2023-02-05T04:29:32;35.10;;;12.82;;
72974;SDS011;61166;54.228;37.632;2023-02-05T04:31:58;40.30;;;14.05;;
72974;SDS011;61166;54.228;37.632;2023-02-05T04:34:25;30.73;;;11.40;;
72974;SDS011;61166;54.228;37.632;2023-02-05T04:36:51;32.30;;;12.10;;
72974;SDS011;61166;54.228;37.632;2023-02-05T04:39:17;31.73;;;12.80;;
72974;SDS011;61166;54.228;37.632;2023-02-05T04:41:44;31.23;;;11.38;;
72974;SDS011;61166;54.228;37.632;2023-02-05T04:44:10;35.78;;;13.00;;
72974;SDS011;61166;54.228;37.632;2023-02-05T04:46:37;37.05;;;13.02;;
72974;SDS011;61166;54.228;37.632;2023-02-05T04:49:03;44.17;;;15.53;;
72974;SDS011;61166;54.228;37.632;2023-02-05T04:51:30;37.80;;;12.98;;
72974;SDS011;61166;54.228;37.632;2023-02-05T04:53:56;32.05;;;11.32;;
72974;SDS011;61166;54.228;37.632;2023-02-05T04:56:23;33.20;;;11.55;;
72974;SDS011;61166;54.228;37.632;2023-02-05T04:58:50;32.90;;;11.82;;
72974;SDS011;61166;54.228;37.632;2023-02-05T05:01:17;37.63;;;13.00;;
72974;SDS011;61166;54.228;37.632;2023-02-05T05:03:44;35.25;;;12.52;;
72974;SDS011;61166;54.228;37.632;2023-02-05T05:06:11;40.58;;;13.93;;
72974;SDS011;61166;54.228;37.632;2023-02-05T05:08:37;42.13;;;13.90;;
72974;SDS011;61166;54.228;37.632;2023-02-05T05:11:05;40.92;;;13.80;;
72974;SDS011;61166;54.228;37.632;2023-02-05T05:13:32;37.73;;;13.50;;
72974;SDS011;61166;54.228;37.632;2023-02-05T05:15:58;39.80;;;12.65;;
72974;SDS011;61166;54.228;37.632;2023-02-05T05:18:25;29.92;;;11.98;;
72974;SDS011;61166;54.228;37.632;2023-02-05T05:20:52;33.17;;;11.35;;
72974;SDS011;61166;54.228;37.632;2023-02-05T05:23:18;34.25;;;11.95;;
72974;SDS011;61166;54.228;37.632;2023-02-05T05:25:45;40.80;;;13.17;;
72974;SDS011;61166;54.228;37.632;2023-02-05T05:28:13;34.33;;;13.32;;
72974;SDS011;61166;54.228;37.632;2023-02-05T05:30:40;37.17;;;12.20;;
72974;SDS011;61166;54.228;37.632;2023-02-05T05:33:07;49.53;;;15.10;;
72974;SDS011;61166;54.228;37.632;2023-02-05T05:35:34;45.00;;;14.73;;
72974;SDS011;61166;54.228;37.632;2023-02-05T05:38:01;40.43;;;12.20;;
72974;SDS011;61166;54.228;37.632;2023-02-05T05:40:28;37.58;;;14.07;;
72974;SDS011;61166;54.228;37.632;2023-02-05T05:42:54;35.72;;;12.88;;
72974;SDS011;61166;54.228;37.632;2023-02-05T05:45:21;43.13;;;13.50;;
72974;SDS011;61166;54.228;37.632;2023-02-05T05:47:47;42.85;;;14.50;;
72974;SDS011;61166;54.228;37.632;2023-02-05T05:50:14;40.03;;;12.80;;
72974;SDS011;61166;54.228;37.632;2023-02-05T05:52:41;37.75;;;13.50;;
72974;SDS011;61166;54.228;37.632;2023-02-05T05:55:07;41.47;;;14.40;;
72974;SDS011;61166;54.228;37.632;2023-02-05T05:57:33;41.70;;;13.43;;
72974;SDS011;61166;54.228;37.632;2023-02-05T06:00:00;33.67;;;11.90;;
72974;SDS011;61166;54.228;37.632;2023-02-05T06:02:26;34.10;;;12.93;;
72974;SDS011;61166;54.228;37.632;2023-02-05T06:04:53;35.38;;;12.43;;
72974;SDS011;61166;54.228;37.632;2023-02-05T06:07:19;35.83;;;12.35;;
72974;SDS011;61166;54.228;37.632;2023-02-05T06:09:46;35.70;;;11.93;;
72974;SDS011;61166;54.228;37.632;2023-02-05T06:12:12;30.27;;;11.20;;
72974;SDS011;61166;54.228;37.632;2023-02-05T06:14:38;33.73;;;12.30;;
72974;SDS011;61166;54.228;37.632;2023-02-05T06:17:05;33.85;;;11.52;;
72974;SDS011;61166;54.228;37.632;2023-02-05T06:19:31;37.28;;;11.90;;
72974;SDS011;61166;54.228;37.632;2023-02-05T06:21:58;36.30;;;12.23;;
72974;SDS011;61166;54.228;37.632;2023-02-05T06:24:25;32.88;;;12.75;;
72974;SDS011;61166;54.228;37.632;2023-02-05T06:26:51;32.73;;;12.77;;
72974;SDS011;61166;54.228;37.632;2023-02-05T06:29:17;30.88;;;12.45;;
72974;SDS011;61166;54.228;37.632;2023-02-05T06:31:44;32.72;;;12.35;;
72974;SDS011;61166;54.228;37.632;2023-02-05T06:34:10;34.15;;;12.25;;
72974;SDS011;61166;54.228;37.632;2023-02-05T06:36:37;35.50;;;14.05;;
72974;SDS011;61166;54.228;37.632;2023-02-05T06:39:03;37.77;;;13.67;;
72974;SDS011;61166;54.228;37.632;2023-02-05T06:41:30;40.90;;;13.27;;
72974;SDS011;61166;54.228;37.632;2023-02-05T06:43:56;38.53;;;13.85;;
72974;SDS011;61166;54.228;37.632;2023-02-05T06:46:22;36.97;;;14.98;;
72974;SDS011;61166;54.228;37.632;2023-02-05T06:48:49;35.95;;;14.68;;
72974;SDS011;61166;54.228;37.632;2023-02-05T06:51:15;37.20;;;14.13;;
72974;SDS011;61166;54.228;37.632;2023-02-05T06:53:42;37.28;;;14.93;;
72974;SDS011;61166;54.228;37.632;2023-02-05T06:56:08;38.83;;;14.95;;
72974;SDS011;61166;54.228;37.632;2023-02-05T06:58:35;43.10;;;16.88;;
72974;SDS011;61166;54.228;37.632;2023-02-05T07:01:01;39.90;;;15.23;;
72974;SDS011;61166;54.228;37.632;2023-02-05T07:03:28;36.97;;;14.40;;
72974;SDS011;61166;54.228;37.632;2023-02-05T07:05:54;39.95;;;15.13;;
72974;SDS011;61166;54.228;37.632;2023-02-05T07:08:20;41.00;;;15.50;;
72974;SDS011;61166;54.228;37.632;2023-02-05T07:10:47;36.35;;;15.40;;
72974;SDS011;61166;54.228;37.632;2023-02-05T07:13:13;44.30;;;18.27;;
72974;SDS011;61166;54.228;37.632;2023-02-05T07:15:40;43.13;;;17.23;;
72974;SDS011;61166;54.228;37.632;2023-02-05T07:18:06;44.47;;;17.38;;
72974;SDS011;61166;54.228;37.632;2023-02-05T07:20:33;49.42;;;18.45;;
72974;SDS011;61166;54.228;37.632;2023-02-05T07:22:59;47.42;;;20.10;;
72974;SDS011;61166;54.228;37.632;2023-02-05T07:25:25;48.80;;;18.85;;
72974;SDS011;61166;54.228;37.632;2023-02-05T07:27:52;48.50;;;19.23;;
72974;SDS011;61166;54.228;37.632;2023-02-05T07:30:19;49.75;;;20.17;;
72974;SDS011;61166;54.228;37.632;2023-02-05T07:32:45;50.95;;;21.80;;
72974;SDS011;61166;54.228;37.632;2023-02-05T07:35:11;52.90;;;21.90;;
72974;SDS011;61166;54.228;37.632;2023-02-05T07:37:38;46.28;;;19.85;;
72974;SDS011;61166;54.228;37.632;2023-02-05T07:40:04;48.23;;;20.20;;
72974;SDS011;61166;54.228;37.632;2023-02-05T07:42:31;41.25;;;19.55;;
72974;SDS011;61166;54.228;37.632;2023-02-05T07:44:57;39.15;;;16.83;;
72974;SDS011;61166;54.228;37.632;2023-02-05T07:47:24;43.95;;;20.73;;
72974;SDS011;61166;54.228;37.632;2023-02-05T07:49:50;44.17;;;17.73;;
72974;SDS011;61166;54.228;37.632;2023-02-05T07:52:17;38.05;;;17.20;;
72974;SDS011;61166;54.228;37.632;2023-02-05T07:54:44;31.38;;;14.82;;
72974;SDS011;61166;54.228;37.632;2023-02-05T07:57:10;30.90;;;14.10;;
72974;SDS011;61166;54.228;37.632;2023-02-05T07:59:37;35.05;;;16.08;;
72974;SDS011;61166;54.228;37.632;2023-02-05T08:02:03;36.10;;;16.02;;
72974;SDS011;61166;54.228;37.632;2023-02-05T08:04:29;32.20;;;15.02;;
72974;SDS011;61166;54.228;37.632;2023-02-05T08:06:56;34.35;;;15.85;;
72974;SDS011;61166;54.228;37.632;2023-02-05T08:09:23;31.33;;;14.55;;
72974;SDS011;61166;54.228;37.632;2023-02-05T08:11:49;36.17;;;16.17;;
72974;SDS011;61166;54.228;37.632;2023-02-05T08:14:15;32.30;;;15.15;;
72974;SDS011;61166;54.228;37.632;2023-02-05T08:16:42;34.60;;;15.90;;
72974;SDS011;61166;54.228;37.632;2023-02-05T08:19:15;35.08;;;16.05;;
72974;SDS011;61166;54.228;37.632;2023-02-05T08:21:41;35.17;;;16.30;;
72974;SDS011;61166;54.228;37.632;2023-02-05T08:24:08;38.40;;;17.48;;
72974;SDS011;61166;54.228;37.632;2023-02-05T08:26:35;39.25;;;18.15;;
72974;SDS011;61166;54.228;37.632;2023-02-05T08:29:01;39.05;;;17.08;;
72974;SDS011;61166;54.228;37.632;2023-02-05T08:31:28;40.28;;;18.77;;
72974;SDS011;61166;54.228;37.632;2023-02-05T08:33:54;39.45;;;19.58;;
72974;SDS011;61166;54.228;37.632;2023-02-05T08:36:21;42.03;;;19.90;;
72974;SDS011;61166;54.228;37.632;2023-02-05T08:38:47;43.80;;;20.13;;
72974;SDS011;61166;54.228;37.632;2023-02-05T08:41:14;40.30;;;19.20;;
72974;SDS011;61166;54.228;37.632;2023-02-05T08:43:41;35.65;;;17.90;;
72974;SDS011;61166;54.228;37.632;2023-02-05T08:46:08;34.63;;;16.77;;
72974;SDS011;61166;54.228;37.632;2023-02-05T08:48:35;33.83;;;17.83;;
72974;SDS011;61166;54.228;37.632;2023-02-05T08:51:02;36.95;;;19.10;;
72974;SDS011;61166;54.228;37.632;2023-02-05T08:53:29;41.58;;;20.17;;
72974;SDS011;61166;54.228;37.632;2023-02-05T08:55:56;39.30;;;19.17;;
72974;SDS011;61166;54.228;37.632;2023-02-05T08:58:23;41.72;;;21.23;;
72974;SDS011;61166;54.228;37.632;2023-02-05T09:00:49;41.22;;;21.27;;
72974;SDS011;61166;54.228;37.632;2023-02-05T09:03:16;43.25;;;19.90;;
72974;SDS011;61166;54.228;37.632;2023-02-05T09:05:43;40.20;;;20.88;;
72974;SDS011;61166;54.228;37.632;2023-02-05T09:08:09;35.90;;;18.95;;
72974;SDS011;61166;54.228;37.632;2023-02-05T09:10:36;42.97;;;20.45;;
72974;SDS011;61166;54.228;37.632;2023-02-05T09:13:02;25.52;;;12.65;;
72974;SDS011;61166;54.228;37.632;2023-02-05T09:15:29;33.15;;;16.77;;
72974;SDS011;61166;54.228;37.632;2023-02-05T09:17:55;35.33;;;18.30;;
72974;SDS011;61166;54.228;37.632;2023-02-05T09:20:21;28.95;;;13.02;;
72974;SDS011;61166;54.228;37.632;2023-02-05T09:22:48;24.80;;;12.63;;
72974;SDS011;61166;54.228;37.632;2023-02-05T09:25:14;21.58;;;11.50;;
72974;SDS011;61166;54.228;37.632;2023-02-05T09:27:41;19.40;;;10.45;;
72974;SDS011;61166;54.228;37.632;2023-02-05T09:30:07;19.42;;;10.45;;
72974;SDS011;61166;54.228;37.632;2023-02-05T09:32:34;17.35;;;9.90;;
72974;SDS011;61166;54.228;37.632;2023-02-05T09:35:00;18.45;;;10.35;;
72974;SDS011;61166;54.228;37.632;2023-02-05T09:37:27;18.75;;;9.52;;
72974;SDS011;61166;54.228;37.632;2023-02-05T09:39:53;19.85;;;8.60;;
72974;SDS011;61166;54.228;37.632;2023-02-05T09:42:44;19.92;;;9.88;;
72974;SDS011;61166;54.228;37.632;2023-02-05T09:50:29;20.02;;;9.30;;
72974;SDS011;61166;54.228;37.632;2023-02-05T09:53:00;23.67;;;10.68;;
72974;SDS011;61166;54.228;37.632;2023-02-05T09:55:37;21.92;;;11.38;;
72974;SDS011;61166;54.228;37.632;2023-02-05T09:58:06;13.82;;;7.32;;
72974;SDS011;61166;54.228;37.632;2023-02-05T10:01:00;16.05;;;7.82;;
72974;SDS011;61166;54.228;37.632;2023-02-05T10:03:24;15.75;;;7.63;;
72974;SDS011;61166;54.228;37.632;2023-02-05T10:22:05;14.52;;;6.68;;
72974;SDS011;61166;54.228;37.632;2023-02-05T10:27:21;14.88;;;7.00;;
72974;SDS011;61166;54.228;37.632;2023-02-05T10:32:20;13.57;;;6.35;;
72974;SDS011;61166;54.228;37.632;2023-02-05T10:37:15;13.05;;;5.97;;
72974;SDS011;61166;54.228;37.632;2023-02-05T10:39:42;10.02;;;3.90;;
72974;SDS011;61166;54.228;37.632;2023-02-05T10:42:21;14.13;;;6.47;;
72974;SDS011;61166;54.228;37.632;2023-02-05T10:44:51;11.05;;;5.15;;
72974;SDS011;61166;54.228;37.632;2023-02-05T10:47:42;11.53;;;5.70;;
72974;SDS011;61166;54.228;37.632;2023-02-05T10:50:47;13.55;;;5.55;;
72974;SDS011;61166;54.228;37.632;2023-02-05T10:53:03;12.25;;;5.55;;
72974;SDS011;61166;54.228;37.632;2023-02-05T10:55:29;14.27;;;6.30;;
72974;SDS011;61166;54.228;37.632;2023-02-05T10:57:56;11.90;;;5.82;;
72974;SDS011;61166;54.228;37.632;2023-02-05T11:00:22;14.80;;;6.43;;
72974;SDS011;61166;54.228;37.632;2023-02-05T11:02:50;13.23;;;6.35;;
72974;SDS011;61166;54.228;37.632;2023-02-05T11:07:50;14.45;;;6.68;;
72974;SDS011;61166;54.228;37.632;2023-02-05T11:10:18;15.05;;;6.05;;
72974;SDS011;61166;54.228;37.632;2023-02-05T11:12:46;12.17;;;6.47;;
72974;SDS011;61166;54.228;37.632;2023-02-05T11:15:24;17.60;;;8.75;;
72974;SDS011;61166;54.228;37.632;2023-02-05T11:17:55;12.25;;;6.15;;
72974;SDS011;61166;54.228;37.632;2023-02-05T11:20:24;16.80;;;7.03;;
72974;SDS011;61166;54.228;37.632;2023-02-05T11:23:05;14.23;;;6.07;;
72974;SDS011;61166;54.228;37.632;2023-02-05T11:25:32;18.80;;;6.97;;
72974;SDS011;61166;54.228;37.632;2023-02-05T11:27:59;22.73;;;8.70;;
72974;SDS011;61166;54.228;37.632;2023-02-05T11:30:32;13.82;;;5.85;;
72974;SDS011;61166;54.228;37.632;2023-02-05T11:33:24;15.77;;;7.50;;
72974;SDS011;61166;54.228;37.632;2023-02-05T11:35:55;21.80;;;8.38;;
72974;SDS011;61166;54.228;37.632;2023-02-05T11:38:32;20.77;;;7.90;;
72974;SDS011;61166;54.228;37.632;2023-02-05T11:41:01;22.67;;;8.90;;
72974;SDS011;61166;54.228;37.632;2023-02-05T11:43:39;18.77;;;7.75;;
72974;SDS011;61166;54.228;37.632;2023-02-05T11:46:07;20.45;;;9.05;;
72974;SDS011;61166;54.228;37.632;2023-02-05T11:51:05;16.93;;;7.97;;
72974;SDS011;61166;54.228;37.632;2023-02-05T11:53:31;18.20;;;8.05;;
72974;SDS011;61166;54.228;37.632;2023-02-05T11:56:00;17.85;;;7.35;;
72974;SDS011;61166;54.228;37.632;2023-02-05T11:58:28;19.30;;;7.70;;
72974;SDS011;61166;54.228;37.632;2023-02-05T12:01:04;11.30;;;4.10;;
72974;SDS011;61166;54.228;37.632;2023-02-05T12:03:31;13.10;;;4.72;;
72974;SDS011;61166;54.228;37.632;2023-02-05T12:08:35;20.63;;;8.70;;
72974;SDS011;61166;54.228;37.632;2023-02-05T12:11:07;16.98;;;7.60;;
72974;SDS011;61166;54.228;37.632;2023-02-05T12:16:46;20.97;;;9.43;;
72974;SDS011;61166;54.228;37.632;2023-02-05T12:19:21;27.23;;;11.20;;
72974;SDS011;61166;54.228;37.632;2023-02-05T12:21:49;26.52;;;10.27;;
72974;SDS011;61166;54.228;37.632;2023-02-05T12:26:48;19.80;;;8.60;;
72974;SDS011;61166;54.228;37.632;2023-02-05T12:31:49;25.77;;;10.80;;
72974;SDS011;61166;54.228;37.632;2023-02-05T12:37:08;22.35;;;8.88;;
72974;SDS011;61166;54.228;37.632;2023-02-05T12:39:41;21.92;;;9.13;;
72974;SDS011;61166;54.228;37.632;2023-02-05T12:47:40;19.95;;;8.23;;
72974;SDS011;61166;54.228;37.632;2023-02-05T12:57:49;24.10;;;9.75;;
72974;SDS011;61166;54.228;37.632;2023-02-05T13:05:40;20.42;;;7.75;;
72974;SDS011;61166;54.228;37.632;2023-02-05T13:10:57;24.63;;;10.20;;
72974;SDS011;61166;54.228;37.632;2023-02-05T13:13:27;20.10;;;9.00;;
72974;SDS011;61166;54.228;37.632;2023-02-05T13:16:02;21.55;;;8.73;;
72974;SDS011;61166;54.228;37.632;2023-02-05T13:18:31;20.65;;;9.40;;
72974;SDS011;61166;54.228;37.632;2023-02-05T13:21:01;21.47;;;8.67;;
72974;SDS011;61166;54.228;37.632;2023-02-05T13:23:28;12.43;;;5.50;;
72974;SDS011;61166;54.228;37.632;2023-02-05T13:25:56;20.95;;;8.02;;
72974;SDS011;61166;54.228;37.632;2023-02-05T13:30:56;23.45;;;10.13;;
72974;SDS011;61166;54.228;37.632;2023-02-05T13:33:23;28.97;;;10.20;;
72974;SDS011;61166;54.228;37.632;2023-02-05T13:46:19;23.53;;;9.23;;
72974;SDS011;61166;54.228;37.632;2023-02-05T14:01:48;17.05;;;7.38;;
72974;SDS011;61166;54.228;37.632;2023-02-05T14:07:46;20.55;;;7.85;;
72974;SDS011;61166;54.228;37.632;2023-02-05T14:09:42;25.25;;;9.93;;
72974;SDS011;61166;54.228;37.632;2023-02-05T14:12:10;29.93;;;10.60;;
72974;SDS011;61166;54.228;37.632;2023-02-05T14:14:38;26.15;;;10.43;;
72974;SDS011;61166;54.228;37.632;2023-02-05T14:19:51;28.55;;;12.43;;
72974;SDS011;61166;54.228;37.632;2023-02-05T14:25:08;27.57;;;10.60;;
72974;SDS011;61166;54.228;37.632;2023-02-05T14:27:49;26.15;;;11.93;;
72974;SDS011;61166;54.228;37.632;2023-02-05T14:32:59;21.00;;;8.18;;
72974;SDS011;61166;54.228;37.632;2023-02-05T14:35:27;16.02;;;7.43;;
72974;SDS011;61166;54.228;37.632;2023-02-05T14:37:56;28.30;;;12.57;;
72974;SDS011;61166;54.228;37.632;2023-02-05T14:40:34;24.27;;;10.75;;
72974;SDS011;61166;54.228;37.632;2023-02-05T14:43:11;15.82;;;6.72;;
72974;SDS011;61166;54.228;37.632;2023-02-05T14:45:42;28.48;;;10.57;;
72974;SDS011;61166;54.228;37.632;2023-02-05T14:48:31;18.73;;;7.53;;
72974;SDS011;61166;54.228;37.632;2023-02-05T14:51:02;35.87;;;14.10;;
72974;SDS011;61166;54.228;37.632;2023-02-05T14:53:29;24.13;;;10.10;;
72974;SDS011;61166;54.228;37.632;2023-02-05T14:55:56;25.88;;;11.82;;
72974;SDS011;61166;54.228;37.632;2023-02-05T14:58:24;26.23;;;11.05;;
72974;SDS011;61166;54.228;37.632;2023-02-05T15:01:12;21.70;;;8.57;;
72974;SDS011;61166;54.228;37.632;2023-02-05T15:03:38;26.43;;;11.00;;
72974;SDS011;61166;54.228;37.632;2023-02-05T15:06:13;24.58;;;9.73;;
72974;SDS011;61166;54.228;37.632;2023-02-05T15:08:41;22.77;;;10.05;;
72974;SDS011;61166;54.228;37.632;2023-02-05T15:13:36;21.55;;;9.30;;
72974;SDS011;61166;54.228;37.632;2023-02-05T15:16:07;21.50;;;10.00;;
72974;SDS011;61166;54.228;37.632;2023-02-05T15:18:38;28.38;;;11.07;;
72974;SDS011;61166;54.228;37.632;2023-02-05T15:21:05;27.58;;;12.18;;
72974;SDS011;61166;54.228;37.632;2023-02-05T15:23:38;29.70;;;12.57;;
72974;SDS011;61166;54.228;37.632;2023-02-05T15:26:06;19.25;;;9.27;;
72974;SDS011;61166;54.228;37.632;2023-02-05T15:28:56;28.00;;;11.20;;
72974;SDS011;61166;54.228;37.632;2023-02-05T15:31:28;20.98;;;9.88;;
72974;SDS011;61166;54.228;37.632;2023-02-05T15:36:44;27.55;;;11.27;;
72974;SDS011;61166;54.228;37.632;2023-02-05T15:39:18;23.27;;;9.75;;
72974;SDS011;61166;54.228;37.632;2023-02-05T15:41:46;27.50;;;12.03;;
72974;SDS011;61166;54.228;37.632;2023-02-05T15:44:18;20.05;;;9.80;;
72974;SDS011;61166;54.228;37.632;2023-02-05T15:46:45;15.95;;;7.38;;
72974;SDS011;61166;54.228;37.632;2023-02-05T15:49:13;15.63;;;6.85;;
72974;SDS011;61166;54.228;37.632;2023-02-05T15:51:39;22.70;;;9.50;;
72974;SDS011;61166;54.228;37.632;2023-02-05T15:54:06;26.70;;;10.30;;
72974;SDS011;61166;54.228;37.632;2023-02-05T15:56:34;19.30;;;8.05;;
72974;SDS011;61166;54.228;37.632;2023-02-05T16:01:32;25.15;;;11.75;;
72974;SDS011;61166;54.228;37.632;2023-02-05T16:04:00;18.20;;;7.53;;
72974;SDS011;61166;54.228;37.632;2023-02-05T16:06:28;29.27;;;14.30;;
72974;SDS011;61166;54.228;37.632;2023-02-05T16:08:55;25.73;;;11.93;;
72974;SDS011;61166;54.228;37.632;2023-02-05T16:11:27;23.02;;;10.15;;
72974;SDS011;61166;54.228;37.632;2023-02-05T16:14:09;14.77;;;5.72;;
72974;SDS011;61166;54.228;37.632;2023-02-05T16:16:37;24.42;;;9.82;;
72974;SDS011;61166;54.228;37.632;2023-02-05T16:19:05;22.97;;;10.70;;
72974;SDS011;61166;54.228;37.632;2023-02-05T16:21:34;21.45;;;9.00;;
72974;SDS011;61166;54.228;37.632;2023-02-05T16:24:02;25.27;;;10.20;;
72974;SDS011;61166;54.228;37.632;2023-02-05T16:26:33;23.65;;;8.80;;
72974;SDS011;61166;54.228;37.632;2023-02-05T16:29:02;24.23;;;10.27;;
72974;SDS011;61166;54.228;37.632;2023-02-05T16:31:34;24.63;;;9.33;;
72974;SDS011;61166;54.228;37.632;2023-02-05T16:34:15;21.92;;;7.90;;
72974;SDS011;61166;54.228;37.632;2023-02-05T16:36:42;28.13;;;12.07;;
72974;SDS011;61166;54.228;37.632;2023-02-05T16:39:32;25.08;;;11.18;;
72974;SDS011;61166;54.228;37.632;2023-02-05T16:42:06;22.52;;;9.38;;
72974;SDS011;61166;54.228;37.632;2023-02-05T16:44:34;30.63;;;11.67;;
72974;SDS011;61166;54.228;37.632;2023-02-05T16:47:14;26.17;;;10.18;;